Au Sable Chasm, New York
Current Conditions -  °F | °C
As of 11:53 AM on Wednesday 22 Oct 2014 (Local Time) from KPBG Reporting Station
Light Rain Light Rain  
Wind Chill: 38°   Ceiling: 1000
Heat Index: 45°   Visibility: 8mi
Dew Point: 43°   Wind: 16mph
Humidity: 93%   Direction: 350°N
Pressure: 30.23"   Gusts: NA
Location:  44.5125°N, 73.5235°W
Report Text: KPBG 221553Z AUTO 35014KT 8SM -RA OVC010 07/06 A3023 RMK AO2 RAB32 SLP239 P0000 T00720061
Loading
Personal Weather Stations






























Interactive Weather Map
Tropical Storm Tracking
New forecast layout! Learn more

10-Day Weather Forecast

Advertisements
Track Severe Weather on mobile